createdAt,value
2024-03-05T00:01:44.797Z,0.77
2024-03-05T00:04:12.667Z,0.77
2024-03-05T00:06:40.177Z,0.80
2024-03-05T00:09:07.389Z,0.70
2024-03-05T00:11:34.875Z,0.85
2024-03-05T00:14:02.246Z,0.63
2024-03-05T00:16:29.528Z,0.70
2024-03-05T00:18:56.784Z,0.70
2024-03-05T00:21:24.056Z,1.08
2024-03-05T00:23:51.239Z,1.05
2024-03-05T00:26:19.511Z,0.55
2024-03-05T00:28:46.895Z,0.68
2024-03-05T00:31:14.235Z,0.90
2024-03-05T00:33:41.462Z,0.70
2024-03-05T00:36:08.704Z,0.75
2024-03-05T00:38:35.965Z,1.00
2024-03-05T00:41:03.323Z,0.50
2024-03-05T00:43:30.776Z,0.70
2024-03-05T00:45:58.017Z,0.65
2024-03-05T00:48:25.293Z,0.82
2024-03-05T00:50:53.052Z,0.95
2024-03-05T00:53:21.780Z,0.77
2024-03-05T00:55:49.112Z,0.70
2024-03-05T00:58:16.433Z,0.82
2024-03-05T01:00:44.514Z,0.90
2024-03-05T01:03:12.117Z,0.65
2024-03-05T01:05:39.306Z,0.93
2024-03-05T01:08:06.572Z,0.82
2024-03-05T01:10:33.899Z,1.42
2024-03-05T01:13:01.085Z,0.90
2024-03-05T01:15:28.316Z,1.33
2024-03-05T01:17:55.580Z,1.05
2024-03-05T01:20:22.842Z,1.05
2024-03-05T01:22:50.143Z,0.60
2024-03-05T01:25:18.522Z,1.50
2024-03-05T01:27:46.556Z,0.98
2024-03-05T01:30:15.056Z,1.08
2024-03-05T01:32:42.447Z,0.80
2024-03-05T01:35:14.116Z,1.00
2024-03-05T01:37:41.416Z,1.10
2024-03-05T01:40:10.364Z,1.15
2024-03-05T01:42:37.687Z,1.48
2024-03-05T01:45:04.960Z,0.82
2024-03-05T01:47:35.400Z,0.90
2024-03-05T01:50:02.742Z,0.85
2024-03-05T01:52:31.665Z,0.80
2024-03-05T01:55:00.280Z,1.15
2024-03-05T01:57:28.206Z,0.88
2024-03-05T01:59:55.462Z,1.30
2024-03-05T02:02:24.409Z,4.32
2024-03-05T02:04:51.788Z,1.00
2024-03-05T02:07:19.088Z,1.00
2024-03-05T02:09:47.059Z,1.02
2024-03-05T02:12:14.384Z,1.10
2024-03-05T02:14:41.913Z,1.23
2024-03-05T02:17:09.281Z,1.00
2024-03-05T02:19:36.592Z,1.27
2024-03-05T02:22:04.644Z,1.00
2024-03-05T02:24:32.168Z,0.70
2024-03-05T02:26:59.417Z,1.08
2024-03-05T02:29:26.628Z,1.42
2024-03-05T02:31:54.009Z,1.20
2024-03-05T02:34:22.670Z,0.90
2024-03-05T02:36:49.878Z,0.90
2024-03-05T02:39:18.971Z,0.88
2024-03-05T02:41:46.373Z,1.00
2024-03-05T02:44:13.627Z,1.10
2024-03-05T02:46:40.894Z,1.17
2024-03-05T02:49:08.222Z,1.15
2024-03-05T02:51:35.905Z,1.23
2024-03-05T02:54:04.426Z,1.45
2024-03-05T02:56:31.610Z,1.42
2024-03-05T02:58:59.373Z,1.17
2024-03-05T03:01:26.707Z,0.90
2024-03-05T03:03:53.959Z,0.65
2024-03-05T03:06:21.120Z,1.20
2024-03-05T03:08:48.402Z,1.40
2024-03-05T03:11:15.731Z,1.23
2024-03-05T03:13:43.088Z,1.13
2024-03-05T03:16:10.346Z,1.27
2024-03-05T03:18:37.608Z,0.68
2024-03-05T03:21:05.993Z,0.70
2024-03-05T03:23:33.692Z,1.08
2024-03-05T03:26:00.946Z,1.33
2024-03-05T03:28:28.231Z,1.67
2024-03-05T03:30:56.267Z,0.80
2024-03-05T03:33:23.532Z,1.45
2024-03-05T03:35:50.741Z,1.40
2024-03-05T03:38:18.100Z,1.60
2024-03-05T03:40:45.494Z,0.95
2024-03-05T03:43:13.551Z,1.30
2024-03-05T03:45:41.708Z,1.30
2024-03-05T03:48:09.018Z,1.50
2024-03-05T03:50:38.467Z,1.60
2024-03-05T03:53:05.866Z,1.02
2024-03-05T03:55:33.125Z,1.40
2024-03-05T03:58:00.400Z,1.23
2024-03-05T04:00:27.695Z,1.40
2024-03-05T04:02:55.016Z,1.30
2024-03-05T04:05:22.215Z,0.98
2024-03-05T04:07:49.542Z,1.63
2024-03-05T04:10:17.009Z,1.38
2024-03-05T04:12:44.393Z,1.40
2024-03-05T04:15:13.697Z,1.23
2024-03-05T04:17:41.356Z,1.30
2024-03-05T04:20:10.451Z,1.33
2024-03-05T04:22:38.218Z,1.13
2024-03-05T04:25:06.518Z,1.30
2024-03-05T04:27:34.813Z,1.55
2024-03-05T04:30:03.382Z,1.67
2024-03-05T04:32:31.592Z,1.10
2024-03-05T04:35:02.426Z,1.75
2024-03-05T04:37:30.445Z,1.80
2024-03-05T04:39:57.729Z,1.75
2024-03-05T04:42:26.018Z,2.28
2024-03-05T04:44:54.420Z,1.73
2024-03-05T04:47:21.976Z,2.30
2024-03-05T04:49:49.341Z,2.15
2024-03-05T04:52:16.785Z,1.67
2024-03-05T04:54:44.125Z,2.00
2024-03-05T04:57:11.367Z,1.80
2024-03-05T04:59:38.653Z,1.77
2024-03-05T05:02:06.553Z,1.73
2024-03-05T05:04:39.430Z,2.35
2024-03-05T05:07:08.620Z,2.30
2024-03-05T05:09:35.869Z,2.22
2024-03-05T05:12:03.387Z,1.80
2024-03-05T05:14:30.565Z,2.22
2024-03-05T05:16:58.050Z,2.38
2024-03-05T05:19:26.564Z,2.70
2024-03-05T05:21:54.237Z,2.20
2024-03-05T05:24:21.474Z,2.22
2024-03-05T05:26:49.014Z,2.25
2024-03-05T05:29:24.111Z,2.10
2024-03-05T05:31:59.395Z,2.17
2024-03-05T05:34:26.669Z,1.92
2024-03-05T05:36:54.065Z,1.90
2024-03-05T05:39:25.533Z,2.28
2024-03-05T05:41:53.220Z,2.65
2024-03-05T05:44:20.939Z,2.38
2024-03-05T05:46:48.254Z,2.88
2024-03-05T05:49:21.135Z,2.10
2024-03-05T05:51:48.687Z,2.50
2024-03-05T05:54:19.816Z,3.45
2024-03-05T05:56:48.986Z,2.67
2024-03-05T05:59:17.103Z,2.83
2024-03-05T06:01:45.030Z,2.95
2024-03-05T06:04:13.046Z,2.40
2024-03-05T06:06:40.460Z,2.80
2024-03-05T06:09:11.119Z,2.80
2024-03-05T06:11:38.693Z,3.38
2024-03-05T06:14:06.212Z,2.95
2024-03-05T06:16:33.802Z,2.83
2024-03-05T06:19:01.091Z,3.47
2024-03-05T06:21:28.974Z,3.92
2024-03-05T06:23:56.404Z,4.97
2024-03-05T06:26:23.677Z,4.13
2024-03-05T06:28:51.072Z,4.15
2024-03-05T06:31:18.509Z,3.97
2024-03-05T06:33:45.980Z,4.88
2024-03-05T06:36:13.680Z,5.07
2024-03-05T06:38:41.279Z,3.63
2024-03-05T06:41:08.991Z,4.30
2024-03-05T06:43:39.602Z,4.28
2024-03-05T06:46:10.989Z,4.35
2024-03-05T06:48:43.291Z,4.20
2024-03-05T06:51:27.697Z,4.38
2024-03-05T06:54:13.745Z,3.85
2024-03-05T06:56:41.354Z,5.00
2024-03-05T06:59:09.632Z,5.07
2024-03-05T07:01:37.053Z,5.22
2024-03-05T07:04:06.965Z,5.60
2024-03-05T07:06:35.281Z,5.28
2024-03-05T07:09:03.245Z,4.97
2024-03-05T07:11:30.893Z,5.35
2024-03-05T07:13:59.209Z,4.78
2024-03-05T07:16:26.816Z,5.03
2024-03-05T07:18:57.119Z,5.50
2024-03-05T07:21:24.955Z,5.18
2024-03-05T07:23:53.492Z,5.78
2024-03-05T07:26:21.813Z,6.07
2024-03-05T07:28:49.414Z,6.93
2024-03-05T07:31:17.929Z,7.00
2024-03-05T07:33:48.624Z,6.10
2024-03-05T07:36:19.224Z,6.03
2024-03-05T07:38:46.774Z,6.80
2024-03-05T07:41:22.498Z,7.35
2024-03-05T07:43:56.971Z,5.93
2024-03-05T07:46:24.465Z,7.45
2024-03-05T07:48:52.004Z,7.25
2024-03-05T07:51:24.540Z,6.57
2024-03-05T07:53:57.335Z,6.80
2024-03-05T07:56:24.766Z,7.25
2024-03-05T07:58:52.148Z,7.43
2024-03-05T08:01:19.642Z,7.63
2024-03-05T08:03:47.074Z,8.35
2024-03-05T08:06:14.497Z,8.00
2024-03-05T08:08:41.982Z,7.07
2024-03-05T08:11:09.357Z,7.40
2024-03-05T08:13:36.924Z,7.20
2024-03-05T08:16:05.808Z,6.93
2024-03-05T08:18:33.393Z,6.65
2024-03-05T08:21:02.899Z,7.00
2024-03-05T08:23:30.373Z,7.45
2024-03-05T08:25:57.831Z,8.05
2024-03-05T08:28:25.623Z,6.88
2024-03-05T08:30:55.044Z,5.25
2024-03-05T08:33:24.707Z,6.20
2024-03-05T08:35:52.544Z,5.90
2024-03-05T08:38:19.769Z,7.18
2024-03-05T08:40:49.195Z,6.03
2024-03-05T08:43:16.519Z,6.72
2024-03-05T08:45:43.778Z,6.95
2024-03-05T08:48:11.096Z,6.30
2024-03-05T08:50:38.542Z,6.28
2024-03-05T08:53:06.333Z,5.50
2024-03-05T08:55:34.009Z,6.78
2024-03-05T08:58:01.852Z,4.88
2024-03-05T09:00:38.098Z,5.60
2024-03-05T09:03:10.872Z,6.88
2024-03-05T09:05:38.499Z,6.95
2024-03-05T09:08:06.729Z,6.03
2024-03-05T09:10:35.578Z,6.53
2024-03-05T09:13:03.273Z,6.72
2024-03-05T09:15:31.164Z,6.53
2024-03-05T09:17:59.074Z,6.32
2024-03-05T09:20:26.963Z,6.30
2024-03-05T09:22:54.638Z,4.88
2024-03-05T09:25:21.988Z,6.15
2024-03-05T09:27:49.564Z,6.03
2024-03-05T09:30:19.503Z,5.18
2024-03-05T09:32:48.073Z,5.85
2024-03-05T09:35:16.820Z,4.72
2024-03-05T09:37:48.152Z,4.53
2024-03-05T09:40:19.706Z,4.97
2024-03-05T09:42:47.857Z,4.43
2024-03-05T09:45:15.363Z,4.60
2024-03-05T09:47:44.105Z,4.30
2024-03-05T09:50:12.675Z,3.17
2024-03-05T09:52:40.036Z,3.78
2024-03-05T09:55:07.567Z,3.67
2024-03-05T09:57:35.084Z,3.90
2024-03-05T10:00:02.282Z,4.25
2024-03-05T10:02:40.133Z,4.05
2024-03-05T10:05:10.857Z,3.80
2024-03-05T10:07:38.520Z,3.40
2024-03-05T10:10:05.910Z,4.35
2024-03-05T10:12:33.169Z,4.00
2024-03-05T10:15:00.511Z,3.58
2024-03-05T10:17:27.826Z,3.20
2024-03-05T10:19:55.156Z,3.20
2024-03-05T10:22:22.917Z,2.25
2024-03-05T10:24:50.266Z,3.38
2024-03-05T10:27:17.449Z,3.28
2024-03-05T10:29:44.703Z,3.45
2024-03-05T10:32:12.975Z,1.83
2024-03-05T10:34:40.411Z,2.30
2024-03-05T10:37:08.179Z,2.17
2024-03-05T10:39:35.496Z,1.70
2024-03-05T10:42:04.328Z,1.67
2024-03-05T10:44:31.778Z,1.27
2024-03-05T10:46:59.190Z,0.80
2024-03-05T10:49:26.581Z,0.80
2024-03-05T10:51:54.316Z,0.60
2024-03-05T10:54:21.740Z,1.00
2024-03-05T10:56:51.030Z,1.77
2024-03-05T10:59:41.694Z,2.70
2024-03-05T11:02:10.358Z,2.72
2024-03-05T11:04:37.741Z,3.05
2024-03-05T11:07:07.223Z,3.70
2024-03-05T11:09:34.644Z,4.88
2024-03-05T11:12:01.883Z,5.40
2024-03-05T11:14:29.131Z,5.63
2024-03-05T11:16:57.892Z,4.93
2024-03-05T11:19:25.154Z,7.65
2024-03-05T11:21:52.513Z,7.53
2024-03-05T11:24:21.159Z,7.93
2024-03-05T11:26:48.424Z,8.55
2024-03-05T11:29:15.808Z,7.68
2024-03-05T11:31:43.207Z,9.23
2024-03-05T11:34:10.432Z,8.30
2024-03-05T11:36:38.097Z,9.50
2024-03-05T11:39:05.484Z,8.35
2024-03-05T11:41:33.299Z,6.40
2024-03-05T11:44:00.808Z,5.40
2024-03-05T11:46:28.212Z,3.38
2024-03-05T11:48:55.422Z,2.00
2024-03-05T11:51:23.785Z,1.60
2024-03-05T11:53:51.008Z,1.65
2024-03-05T11:56:18.282Z,1.20
2024-03-05T11:58:45.532Z,1.52
2024-03-05T12:01:12.804Z,1.83
2024-03-05T12:03:40.063Z,1.60
2024-03-05T12:06:07.852Z,1.92
2024-03-05T12:08:39.738Z,2.85
2024-03-05T12:11:07.227Z,3.95
2024-03-05T12:13:34.742Z,4.30
2024-03-05T12:16:02.104Z,6.85
2024-03-05T12:18:29.306Z,5.28
2024-03-05T12:20:56.630Z,7.63
2024-03-05T12:23:40.943Z,3.70
2024-03-05T12:26:10.558Z,6.25
2024-03-05T12:28:38.210Z,6.07
2024-03-05T12:31:05.571Z,6.80
2024-03-05T12:33:32.802Z,5.53
2024-03-05T12:36:00.262Z,5.43
2024-03-05T12:38:27.485Z,5.68
2024-03-05T12:40:55.220Z,5.88
2024-03-05T12:43:22.502Z,4.90
2024-03-05T12:45:50.184Z,5.10
2024-03-05T12:48:17.452Z,4.05
2024-03-05T12:50:44.738Z,5.30
2024-03-05T12:53:15.266Z,5.72
2024-03-05T12:55:42.599Z,3.13
2024-03-05T12:58:10.213Z,5.63
2024-03-05T13:00:37.707Z,3.90
2024-03-05T13:03:08.375Z,3.85
2024-03-05T13:05:35.688Z,3.92
2024-03-05T13:08:03.097Z,3.13
2024-03-05T13:10:30.591Z,3.20
2024-03-05T13:12:57.817Z,2.10
2024-03-05T13:15:25.056Z,3.30
2024-03-05T13:17:52.572Z,3.33
2024-03-05T13:20:20.290Z,2.35
2024-03-05T13:22:47.709Z,2.75
2024-03-05T13:25:16.787Z,2.30
2024-03-05T13:27:44.419Z,1.73
2024-03-05T13:30:16.033Z,1.75
2024-03-05T13:32:43.498Z,1.38
2024-03-05T13:35:10.760Z,1.50
2024-03-05T13:37:38.272Z,1.88
2024-03-05T13:40:05.596Z,1.25
2024-03-05T13:42:37.681Z,1.85
2024-03-05T13:45:13.713Z,1.40
2024-03-05T13:47:41.572Z,1.70
2024-03-05T13:50:12.323Z,1.42
2024-03-05T13:52:43.533Z,1.65
2024-03-05T13:55:11.300Z,1.23
2024-03-05T13:57:38.556Z,0.88
2024-03-05T14:00:08.840Z,1.67
2024-03-05T14:02:42.214Z,1.92
2024-03-05T14:05:12.310Z,1.70
2024-03-05T14:07:39.697Z,2.10
2024-03-05T14:10:11.110Z,1.80
2024-03-05T14:12:38.562Z,2.03
2024-03-05T14:15:10.438Z,1.60
2024-03-05T14:17:38.214Z,1.83
2024-03-05T14:20:08.650Z,1.23
2024-03-05T14:22:40.887Z,1.20
2024-03-05T14:25:09.716Z,0.97
2024-03-05T14:27:36.933Z,0.85
2024-03-05T14:30:04.238Z,1.10
2024-03-05T14:32:32.001Z,0.85
2024-03-05T14:35:00.333Z,1.23
2024-03-05T14:37:27.790Z,0.70
2024-03-05T14:39:55.151Z,0.88
2024-03-05T14:42:22.446Z,0.75
2024-03-05T14:44:49.689Z,0.60
2024-03-05T14:47:16.944Z,1.00
2024-03-05T14:49:44.299Z,0.80
2024-03-05T14:52:11.557Z,1.33
2024-03-05T14:54:38.939Z,0.80
2024-03-05T14:57:06.114Z,0.70
2024-03-05T14:59:34.767Z,0.80
2024-03-05T15:02:02.077Z,0.80
2024-03-05T15:04:29.384Z,0.70
2024-03-05T15:06:56.689Z,0.80
2024-03-05T15:09:24.005Z,0.52
2024-03-05T15:11:51.452Z,0.90
2024-03-05T15:14:18.722Z,1.13
2024-03-05T15:16:46.069Z,0.70
2024-03-05T15:19:16.139Z,0.70
2024-03-05T15:21:43.491Z,1.05
2024-03-05T15:24:12.780Z,0.68
2024-03-05T15:26:47.673Z,0.63
2024-03-05T15:29:21.536Z,0.68
2024-03-05T15:31:48.845Z,0.98
2024-03-05T15:34:16.312Z,0.93
2024-03-05T15:36:43.541Z,0.98
2024-03-05T15:39:10.912Z,1.15
2024-03-05T15:41:41.236Z,0.80
2024-03-05T15:44:08.547Z,1.00
2024-03-05T15:46:35.804Z,0.90
2024-03-05T15:49:04.692Z,0.77
2024-03-05T15:51:31.862Z,1.10
2024-03-05T15:54:00.149Z,0.90
2024-03-05T15:56:46.034Z,1.08
2024-03-05T15:59:32.369Z,1.33
2024-03-05T16:01:59.780Z,0.85
2024-03-05T16:04:48.816Z,1.48
2024-03-05T16:07:15.515Z,1.00
2024-03-05T16:09:42.961Z,0.82
2024-03-05T16:12:12.920Z,1.05
2024-03-05T16:14:42.056Z,1.25
2024-03-05T16:17:10.441Z,0.93
2024-03-05T16:19:37.814Z,0.95
2024-03-05T16:22:05.151Z,1.05
2024-03-05T16:24:32.461Z,0.77
2024-03-05T16:26:59.786Z,0.90
2024-03-05T16:29:27.369Z,1.05
2024-03-05T16:31:55.203Z,0.80
2024-03-05T16:34:23.515Z,0.90
2024-03-05T16:36:50.881Z,1.17
2024-03-05T16:39:19.738Z,0.98
2024-03-05T16:41:47.647Z,0.70
2024-03-05T16:44:15.218Z,1.38
2024-03-05T16:46:42.628Z,1.20
2024-03-05T16:49:09.978Z,1.05
2024-03-05T16:51:40.955Z,1.15
2024-03-05T16:54:10.097Z,1.90
2024-03-05T16:56:37.397Z,1.42
2024-03-05T16:59:08.351Z,1.40
2024-03-05T17:01:35.824Z,1.90
2024-03-05T17:04:06.915Z,1.75
2024-03-05T17:06:34.696Z,1.98
2024-03-05T17:09:02.721Z,2.22
2024-03-05T17:11:30.512Z,2.15
2024-03-05T17:13:58.174Z,2.00
2024-03-05T17:16:26.849Z,2.50
2024-03-05T17:18:54.277Z,2.67
2024-03-05T17:21:23.205Z,3.40
2024-03-05T17:23:50.849Z,2.17
2024-03-05T17:26:18.333Z,2.00
2024-03-05T17:28:46.172Z,2.00
2024-03-05T17:31:13.546Z,2.20
2024-03-05T17:33:40.906Z,2.30
2024-03-05T17:36:08.226Z,3.13
2024-03-05T17:38:36.049Z,2.40
2024-03-05T17:41:04.785Z,2.38
2024-03-05T17:43:32.306Z,2.08
2024-03-05T17:46:00.461Z,1.77
2024-03-05T17:48:28.525Z,1.55
2024-03-05T17:50:56.037Z,1.60
2024-03-05T17:53:23.265Z,2.38
2024-03-05T17:55:50.687Z,1.40
2024-03-05T17:58:19.942Z,1.48
2024-03-05T18:00:47.557Z,1.00
2024-03-05T18:03:23.377Z,1.95
2024-03-05T18:05:51.161Z,1.60
2024-03-05T18:08:18.492Z,1.98
2024-03-05T18:10:46.888Z,1.20
2024-03-05T18:13:16.194Z,1.73
2024-03-05T18:15:46.556Z,1.25
2024-03-05T18:18:19.794Z,1.40
2024-03-05T18:20:47.329Z,1.27
2024-03-05T18:23:14.740Z,1.73
2024-03-05T18:25:43.221Z,1.20
2024-03-05T18:28:10.940Z,2.03
2024-03-05T18:30:39.838Z,1.88
2024-03-05T18:33:08.935Z,1.88
2024-03-05T18:35:37.235Z,1.90
2024-03-05T18:40:41.449Z,1.63
2024-03-05T18:43:10.914Z,2.53
2024-03-05T18:45:38.830Z,2.50
2024-03-05T18:48:10.062Z,2.45
2024-03-05T18:50:38.838Z,2.65
2024-03-05T18:53:07.690Z,2.97
2024-03-05T18:55:37.506Z,3.28
2024-03-05T18:58:07.666Z,2.97
2024-03-05T19:00:35.118Z,2.70
2024-03-05T19:03:03.272Z,3.20
2024-03-05T19:05:30.569Z,2.30
2024-03-05T19:07:57.888Z,2.78
2024-03-05T19:10:25.952Z,2.60
2024-03-05T19:12:55.036Z,3.35
2024-03-05T19:15:23.764Z,2.33
2024-03-05T19:17:51.097Z,3.63
2024-03-05T19:20:18.577Z,3.65
2024-03-05T19:22:45.947Z,3.67
2024-03-05T19:25:13.687Z,3.72
2024-03-05T19:27:41.256Z,3.20
2024-03-05T19:30:11.717Z,3.22
2024-03-05T19:32:43.306Z,3.30
2024-03-05T19:35:11.396Z,3.88
2024-03-05T19:37:39.128Z,3.35
2024-03-05T19:40:06.853Z,3.90
2024-03-05T19:42:34.365Z,3.58
2024-03-05T19:45:01.652Z,3.60
2024-03-05T19:47:30.450Z,3.42
2024-03-05T19:49:57.752Z,3.20
2024-03-05T19:52:25.080Z,3.10
2024-03-05T19:54:52.717Z,4.93
2024-03-05T19:57:20.339Z,4.35
2024-03-05T19:59:47.582Z,4.78
2024-03-05T20:02:14.925Z,4.30
2024-03-05T20:04:42.339Z,4.07
2024-03-05T20:07:11.599Z,4.25
2024-03-05T20:09:39.482Z,3.85
2024-03-05T20:12:06.980Z,3.78
2024-03-05T20:14:35.305Z,3.42
2024-03-05T20:17:07.230Z,4.25
2024-03-05T20:19:40.360Z,3.72
2024-03-05T20:22:08.715Z,3.55
2024-03-05T20:24:36.213Z,3.90
2024-03-05T20:27:03.755Z,4.40
2024-03-05T20:29:31.249Z,5.88
2024-03-05T20:31:58.757Z,7.22
2024-03-05T20:34:27.722Z,7.43
2024-03-05T20:36:55.700Z,7.20
2024-03-05T20:39:23.044Z,9.88
2024-03-05T20:41:50.571Z,6.85
2024-03-05T20:44:18.225Z,6.50
2024-03-05T20:46:45.733Z,6.88
2024-03-05T20:49:15.523Z,5.75
2024-03-05T20:51:42.839Z,6.18
2024-03-05T20:54:10.413Z,5.40
2024-03-05T20:56:37.691Z,5.32
2024-03-05T20:59:04.951Z,5.20
2024-03-05T21:01:32.505Z,5.70
2024-03-05T21:04:01.532Z,5.45
2024-03-05T21:06:28.920Z,6.20
2024-03-05T21:08:59.487Z,5.45
2024-03-05T21:11:26.953Z,6.05
2024-03-05T21:13:55.055Z,5.45
2024-03-05T21:16:22.392Z,4.93
2024-03-05T21:18:51.208Z,5.10
2024-03-05T21:21:18.829Z,4.53
2024-03-05T21:23:46.101Z,3.97
2024-03-05T21:26:27.600Z,5.15
2024-03-05T21:29:01.589Z,5.20
2024-03-05T21:31:30.193Z,5.05
2024-03-05T21:33:57.601Z,5.05
2024-03-05T21:36:27.499Z,4.60
2024-03-05T21:38:55.930Z,4.32
2024-03-05T21:41:23.448Z,4.38
2024-03-05T21:43:50.885Z,5.93
2024-03-05T21:46:20.657Z,5.40
2024-03-05T21:48:49.562Z,3.83
2024-03-05T21:51:17.027Z,4.85
2024-03-05T21:53:44.457Z,2.97
2024-03-05T21:56:11.854Z,5.05
2024-03-05T21:58:43.300Z,5.07
2024-03-05T22:01:13.729Z,4.75
2024-03-05T22:03:41.142Z,3.28
2024-03-05T22:06:15.481Z,4.25
2024-03-05T22:08:47.158Z,4.97
2024-03-05T22:11:15.552Z,4.93
2024-03-05T22:13:44.076Z,3.88
2024-03-05T22:16:11.307Z,4.22
2024-03-05T22:18:38.645Z,4.38
2024-03-05T22:21:05.903Z,6.28
2024-03-05T22:23:33.130Z,6.15
2024-03-05T22:26:00.464Z,5.45
2024-03-05T22:28:27.975Z,5.65
2024-03-05T22:30:56.558Z,6.78
2024-03-05T22:33:23.866Z,6.25
2024-03-05T22:35:51.304Z,6.40
2024-03-05T22:38:18.581Z,5.57
2024-03-05T22:40:45.996Z,5.80
2024-03-05T22:43:13.406Z,6.65
2024-03-05T22:45:40.649Z,6.78
2024-03-05T22:48:07.965Z,7.80
2024-03-05T22:50:35.286Z,8.30
2024-03-05T22:53:02.614Z,7.97
2024-03-05T22:55:29.982Z,7.20
2024-03-05T22:57:57.319Z,7.93
2024-03-05T23:00:24.899Z,7.43
2024-03-05T23:02:55.293Z,8.13
2024-03-05T23:05:22.713Z,9.05
2024-03-05T23:07:51.036Z,8.88
2024-03-05T23:10:18.425Z,9.10
2024-03-05T23:12:45.848Z,6.63
2024-03-05T23:15:16.974Z,8.70
2024-03-05T23:17:44.782Z,7.57
2024-03-05T23:20:12.232Z,7.97
2024-03-05T23:22:39.964Z,8.43
2024-03-05T23:25:07.942Z,8.38
2024-03-05T23:27:35.750Z,9.27
2024-03-05T23:30:05.054Z,8.35
2024-03-05T23:32:32.366Z,8.20
2024-03-05T23:35:03.212Z,8.23
2024-03-05T23:37:30.576Z,8.05
2024-03-05T23:39:58.995Z,7.70
2024-03-05T23:42:26.772Z,9.52
2024-03-05T23:44:54.023Z,9.15
2024-03-05T23:47:21.398Z,9.00
2024-03-05T23:49:48.779Z,8.05
2024-03-05T23:52:16.069Z,8.80
2024-03-05T23:54:43.405Z,8.02
2024-03-05T23:57:10.681Z,9.57
2024-03-05T23:59:40.537Z,8.77
